Three Oaks, MI

11:04 PM EST on November 28, 2014 (GMT -0500)
Southwest Michigan Regional | Change Station
CLOSE
Current Station
Airport
Location: Benton Harbor,
Elevation: 643 ft
Nearby Weather Stations

Elev 643 ft 42.13 °N, 86.43 °W | Updated 11 minutes ago

Overcast
Overcast
30 °F
Feels Like 20 °F
N
13
Wind Variable Wind from SSE

Today
High -- | Low -- °F
--% Chance of Precip.
Yesterday
High -- | Low -- °F
Precip. -- in
7:51 AM 5:17 PM
Waxing Crescent, 47% visible
Pressure 29.99 in
Visibility 9.0 miles
Clouds Mostly Cloudy 6500 ft
Windchill 20 °F
Dew Point 22 °F
Humidity 72%
Rainfall 0.00 in
Snow Depth Not available.
UV 0 out of 12
Pollen .10 out of 12
Air Quality Not available.
Flu Activity Not available.
METAR KBEH 290353Z AUTO 16011KT 9SM BKN065 M01/M06 A2996 RMK AO2 SLP155 T10111056

More Conditions Fewer Conditions

Pressure 29.99 in
Visibility 9.0 miles
Clouds Mostly Cloudy 6500 ft
Windchill 20 °F
Dew Point 22 °F
Humidity 72%
Rainfall 0.00 in
Snow Depth Not available.
UV 0 out of 12
Pollen .10 out of 12
Air Quality Not available.
Flu Activity Not available.
METAR KBEH 290353Z AUTO 16011KT 9SM BKN065 M01/M06 A2996 RMK AO2 SLP155 T10111056

More Conditions Fewer Conditions

10-Day Weather Forecast

Almanac

Astronomy

Nov. 28, 2014 Rise Set
Actual Time
Civil Twilight
Nautical Twilight
Astronomical Twilight
Moon
Length of Visible Light
Length of Day
Tomorrow will be .
, % of the Moon is Illuminated

Today's Extremes

State Highs State Lows

Community

WunderPhotos

Upload Photos

1,774,396 photos uploaded!

WunderBlogs® & News

Nearby

Air Quality

  Air Quality AQ Index Pollutant
Not available.

Snow Depth

Station Depth Elevation

Earthquake Activity

City Distance Mag. Time & Date
Minimum magnitude displayed is 2.5.

Coastal Water Temperatures

Place Temperature

Nearby Weather Stations